createdAt,value
2019-06-26T00:01:23.979Z,5.10
2019-06-26T00:03:54.326Z,5.47
2019-06-26T00:06:24.606Z,5.92
2019-06-26T00:08:54.891Z,5.55
2019-06-26T00:11:25.172Z,6.30
2019-06-26T00:13:55.464Z,5.35
2019-06-26T00:16:25.744Z,5.50
2019-06-26T00:18:56.031Z,5.97
2019-06-26T00:21:26.675Z,5.24
2019-06-26T00:23:56.951Z,5.47
2019-06-26T00:26:27.527Z,5.87
2019-06-26T00:28:58.058Z,5.30
2019-06-26T00:31:28.353Z,5.17
2019-06-26T00:33:58.628Z,5.10
2019-06-26T00:36:28.915Z,5.45
2019-06-26T00:38:59.190Z,5.20
2019-06-26T00:41:29.478Z,5.97
2019-06-26T00:43:59.755Z,5.97
2019-06-26T00:46:30.042Z,5.30
2019-06-26T00:49:00.324Z,6.08
2019-06-26T00:51:30.975Z,5.67
2019-06-26T00:54:01.325Z,5.37
2019-06-26T00:56:31.925Z,5.33
2019-06-26T00:59:02.209Z,5.58
2019-06-26T01:01:32.502Z,6.03
2019-06-26T01:04:04.755Z,5.67
2019-06-26T01:06:44.001Z,5.76
2019-06-26T01:09:15.745Z,5.85
2019-06-26T01:11:46.025Z,6.03
2019-06-26T01:14:16.306Z,5.50
2019-06-26T01:16:46.662Z,5.03
2019-06-26T01:19:16.945Z,5.64
2019-06-26T01:21:47.379Z,5.30
2019-06-26T01:24:17.590Z,4.70
2019-06-26T01:26:49.052Z,5.65
2019-06-26T01:29:19.347Z,5.28
2019-06-26T01:31:49.624Z,5.03
2019-06-26T01:34:19.913Z,5.87
2019-06-26T01:36:50.190Z,5.37
2019-06-26T01:39:20.486Z,5.30
2019-06-26T01:41:50.767Z,5.72
2019-06-26T01:44:21.053Z,5.47
2019-06-26T01:46:51.332Z,5.67
2019-06-26T01:49:21.612Z,5.33
2019-06-26T01:51:51.887Z,5.30
2019-06-26T01:54:22.187Z,5.05
2019-06-26T01:56:52.457Z,5.28
2019-06-26T01:59:22.845Z,5.14
2019-06-26T02:01:53.135Z,5.83
2019-06-26T02:04:23.419Z,5.78
2019-06-26T02:06:54.123Z,5.50
2019-06-26T02:09:24.411Z,5.15
2019-06-26T02:11:54.686Z,5.95
2019-06-26T02:14:31.162Z,6.30
2019-06-26T02:16:57.193Z,5.12
2019-06-26T02:19:27.470Z,4.87
2019-06-26T02:21:57.766Z,4.58
2019-06-26T02:24:28.055Z,5.05
2019-06-26T02:26:58.563Z,5.30
2019-06-26T02:29:28.853Z,5.40
2019-06-26T02:31:59.143Z,5.28
2019-06-26T02:34:29.434Z,5.42
2019-06-26T02:36:59.708Z,4.67
2019-06-26T02:39:29.997Z,5.65
2019-06-26T02:42:00.287Z,4.87
2019-06-26T02:44:50.923Z,4.65
2019-06-26T02:47:18.729Z,5.45
2019-06-26T02:49:34.598Z,5.60
2019-06-26T02:52:04.952Z,4.60
2019-06-26T02:54:35.253Z,5.15
2019-06-26T02:57:05.524Z,5.77
2019-06-26T02:59:35.887Z,5.00
2019-06-26T03:02:06.170Z,5.75
2019-06-26T03:04:36.445Z,5.47
2019-06-26T03:07:06.719Z,5.80
2019-06-26T03:09:37.009Z,5.87
2019-06-26T03:12:07.585Z,5.65
2019-06-26T03:14:37.873Z,6.05
2019-06-26T03:17:08.152Z,5.53
2019-06-26T03:19:38.441Z,5.12
2019-06-26T03:22:08.718Z,5.30
2019-06-26T03:24:38.999Z,5.47
2019-06-26T03:27:09.368Z,5.75
2019-06-26T03:29:39.677Z,5.65
2019-06-26T03:32:09.964Z,6.30
2019-06-26T03:34:41.250Z,5.83
2019-06-26T03:37:11.526Z,5.75
2019-06-26T03:39:42.272Z,5.53
2019-06-26T03:42:12.547Z,5.70
2019-06-26T03:44:42.854Z,6.08
2019-06-26T03:47:13.141Z,5.75
2019-06-26T03:49:43.419Z,5.78
2019-06-26T03:52:13.704Z,5.53
2019-06-26T03:54:44.052Z,6.10
2019-06-26T03:57:14.649Z,5.40
2019-06-26T03:59:44.958Z,7.58
2019-06-26T04:02:15.227Z,7.57
2019-06-26T04:04:45.505Z,7.20
2019-06-26T04:07:15.850Z,7.05
2019-06-26T04:09:46.160Z,6.80
2019-06-26T04:12:16.762Z,6.30
2019-06-26T04:14:47.025Z,7.08
2019-06-26T04:17:18.538Z,7.03
2019-06-26T04:19:48.801Z,6.85
2019-06-26T04:22:19.086Z,6.50
2019-06-26T04:24:49.357Z,6.37
2019-06-26T04:27:19.933Z,6.92
2019-06-26T04:29:50.201Z,6.87
2019-06-26T04:32:20.477Z,6.27
2019-06-26T04:34:54.269Z,6.62
2019-06-26T04:37:22.794Z,6.87
2019-06-26T04:39:53.079Z,6.90
2019-06-26T04:42:23.344Z,7.47
2019-06-26T04:44:53.626Z,6.83
2019-06-26T04:47:23.897Z,7.00
2019-06-26T04:49:54.170Z,7.03
2019-06-26T04:52:24.439Z,6.73
2019-06-26T04:54:54.715Z,7.20
2019-06-26T04:57:25.060Z,7.08
2019-06-26T04:59:55.415Z,7.53
2019-06-26T05:02:25.687Z,7.80
2019-06-26T05:04:55.960Z,8.50
2019-06-26T05:07:26.291Z,7.92
2019-06-26T05:09:56.571Z,7.25
2019-06-26T05:12:27.932Z,6.92
2019-06-26T05:14:58.215Z,6.62
2019-06-26T05:17:28.531Z,7.87
2019-06-26T05:19:58.805Z,8.88
2019-06-26T05:22:29.085Z,7.87
2019-06-26T05:24:59.358Z,9.53
2019-06-26T05:27:30.108Z,9.38
2019-06-26T05:30:00.400Z,9.95
2019-06-26T05:32:30.694Z,10.18
2019-06-26T05:35:00.962Z,10.52
2019-06-26T05:37:31.331Z,10.53
2019-06-26T05:40:01.952Z,10.35
2019-06-26T05:42:32.703Z,11.97
2019-06-26T05:45:03.339Z,12.05
2019-06-26T05:47:33.626Z,11.85
2019-06-26T05:50:06.159Z,11.77
2019-06-26T05:52:36.508Z,11.83
2019-06-26T05:55:07.797Z,12.35
2019-06-26T05:57:41.622Z,11.90
2019-06-26T06:00:11.668Z,11.83
2019-06-26T06:02:41.946Z,12.18
2019-06-26T06:05:14.044Z,11.50
2019-06-26T06:07:44.324Z,11.70
2019-06-26T06:10:16.012Z,11.77
2019-06-26T06:12:46.308Z,11.40
2019-06-26T06:15:17.303Z,11.57
2019-06-26T06:17:47.933Z,10.58
2019-06-26T06:20:28.514Z,11.10
2019-06-26T06:22:58.818Z,10.58
2019-06-26T06:25:29.095Z,10.20
2019-06-26T06:27:59.377Z,9.48
2019-06-26T06:30:29.732Z,11.48
2019-06-26T06:33:00.073Z,11.60
2019-06-26T06:35:30.643Z,11.57
2019-06-26T06:38:01.175Z,10.00
2019-06-26T06:40:31.451Z,10.85
2019-06-26T06:43:01.736Z,10.83
2019-06-26T06:45:32.156Z,11.64
2019-06-26T06:48:02.526Z,11.22
2019-06-26T06:50:32.804Z,10.40
2019-06-26T06:53:04.557Z,10.90
2019-06-26T06:55:35.963Z,11.38
2019-06-26T06:58:06.533Z,11.73
2019-06-26T07:00:37.067Z,10.40
2019-06-26T07:03:07.349Z,10.63
2019-06-26T07:05:37.637Z,11.65
2019-06-26T07:08:07.947Z,11.48
2019-06-26T07:10:38.213Z,10.23
2019-06-26T07:13:08.493Z,10.43
2019-06-26T07:15:38.794Z,10.68
2019-06-26T07:18:09.055Z,11.12
2019-06-26T07:20:39.355Z,11.30
2019-06-26T07:23:09.687Z,10.23
2019-06-26T07:25:39.919Z,11.60
2019-06-26T07:28:10.801Z,10.18
2019-06-26T07:30:41.133Z,10.28
2019-06-26T07:33:11.421Z,10.38
2019-06-26T07:35:41.698Z,10.63
2019-06-26T07:38:13.110Z,11.12
2019-06-26T07:40:43.385Z,10.10
2019-06-26T07:43:16.435Z,11.47
2019-06-26T07:45:45.865Z,10.58
2019-06-26T07:48:16.152Z,10.70
2019-06-26T07:50:46.436Z,10.90
2019-06-26T07:53:16.712Z,11.00
2019-06-26T07:55:46.994Z,10.28
2019-06-26T07:58:17.278Z,10.58
2019-06-26T08:00:47.570Z,10.32
2019-06-26T08:03:17.912Z,10.23
2019-06-26T08:05:48.193Z,9.50
2019-06-26T08:08:18.467Z,9.60
2019-06-26T08:10:48.755Z,9.45
2019-06-26T08:13:19.043Z,8.58
2019-06-26T08:15:49.309Z,8.80
2019-06-26T08:18:19.663Z,9.67
2019-06-26T08:21:10.639Z,9.13
2019-06-26T08:23:23.029Z,8.90
2019-06-26T08:25:53.313Z,8.55
2019-06-26T08:28:23.576Z,8.53
2019-06-26T08:30:53.857Z,8.45
2019-06-26T08:33:24.196Z,7.92
2019-06-26T08:35:54.648Z,8.03
2019-06-26T08:38:24.935Z,8.55
2019-06-26T08:40:55.209Z,7.63
2019-06-26T08:43:25.474Z,7.95
2019-06-26T08:45:55.758Z,7.93
2019-06-26T08:48:38.836Z,8.45
2019-06-26T08:50:58.000Z,8.30
2019-06-26T08:53:28.644Z,7.20
2019-06-26T08:55:58.920Z,8.68
2019-06-26T08:58:29.205Z,8.33
2019-06-26T09:00:59.497Z,7.92
2019-06-26T09:03:29.786Z,7.90
2019-06-26T09:06:00.346Z,8.35
2019-06-26T09:08:31.862Z,7.30
2019-06-26T09:11:02.332Z,7.97
2019-06-26T09:13:32.613Z,6.90
2019-06-26T09:16:02.892Z,7.10
2019-06-26T09:18:35.729Z,6.85
2019-06-26T09:21:05.140Z,8.18
2019-06-26T09:23:35.688Z,8.13
2019-06-26T09:26:05.993Z,8.53
2019-06-26T09:28:36.291Z,7.40
2019-06-26T09:31:06.570Z,7.92
2019-06-26T09:33:36.846Z,8.20
2019-06-26T09:36:07.272Z,7.15
2019-06-26T09:38:37.536Z,7.17
2019-06-26T09:41:07.816Z,7.40
2019-06-26T09:43:38.084Z,7.20
2019-06-26T09:46:08.369Z,7.28
2019-06-26T09:48:52.319Z,7.53
2019-06-26T09:51:10.620Z,7.22
2019-06-26T09:53:47.094Z,7.60
2019-06-26T09:56:13.636Z,6.92
2019-06-26T09:58:43.911Z,8.00
2019-06-26T10:01:14.186Z,7.80
2019-06-26T10:03:45.416Z,7.08
2019-06-26T10:06:15.727Z,7.37
2019-06-26T10:08:46.006Z,7.97
2019-06-26T10:11:16.271Z,6.42
2019-06-26T10:13:46.550Z,7.05
2019-06-26T10:16:17.111Z,7.65
2019-06-26T10:18:47.393Z,7.10
2019-06-26T10:21:17.667Z,7.33
2019-06-26T10:23:48.006Z,7.90
2019-06-26T10:26:18.581Z,8.00
2019-06-26T10:28:49.147Z,8.48
2019-06-26T10:31:19.415Z,6.84
2019-06-26T10:33:50.100Z,8.00
2019-06-26T10:36:24.191Z,7.87
2019-06-26T10:38:52.358Z,7.28
2019-06-26T10:41:23.365Z,7.92
2019-06-26T10:43:53.642Z,7.35
2019-06-26T10:46:24.011Z,8.00
2019-06-26T10:48:54.306Z,7.95
2019-06-26T10:51:24.584Z,8.10
2019-06-26T10:53:54.852Z,8.13
2019-06-26T10:56:28.472Z,7.72
2019-06-26T10:58:57.346Z,7.47
2019-06-26T11:01:27.625Z,7.85
2019-06-26T11:03:57.905Z,8.00
2019-06-26T11:06:28.182Z,7.95
2019-06-26T11:08:58.467Z,7.40
2019-06-26T11:11:28.745Z,8.25
2019-06-26T11:13:59.039Z,7.63
2019-06-26T11:16:29.614Z,8.20
2019-06-26T11:19:00.021Z,7.60
2019-06-26T11:21:30.434Z,8.55
2019-06-26T11:24:00.714Z,7.23
2019-06-26T11:26:30.997Z,8.00
2019-06-26T11:29:01.304Z,7.33
2019-06-26T11:31:31.577Z,7.90
2019-06-26T11:34:02.160Z,7.42
2019-06-26T11:36:32.432Z,7.67
2019-06-26T11:39:04.350Z,7.45
2019-06-26T11:41:34.616Z,7.13
2019-06-26T11:44:05.041Z,8.85
2019-06-26T11:46:37.033Z,7.72
2019-06-26T11:49:07.744Z,7.75
2019-06-26T11:51:38.027Z,8.03
2019-06-26T11:54:08.325Z,7.75
2019-06-26T11:56:38.604Z,7.47
2019-06-26T11:59:09.342Z,7.83
2019-06-26T12:01:39.721Z,7.70
2019-06-26T12:04:09.990Z,7.38
2019-06-26T12:06:40.269Z,8.08
2019-06-26T12:09:10.613Z,7.60
2019-06-26T12:11:40.901Z,8.10
2019-06-26T12:14:11.179Z,8.03
2019-06-26T12:16:41.456Z,7.87
2019-06-26T12:19:12.024Z,7.72
2019-06-26T12:21:42.413Z,7.47
2019-06-26T12:24:12.684Z,9.15
2019-06-26T12:26:42.956Z,7.97
2019-06-26T12:29:13.281Z,7.80
2019-06-26T12:31:43.569Z,7.78
2019-06-26T12:34:13.847Z,7.30
2019-06-26T12:36:44.116Z,7.40
2019-06-26T12:39:14.458Z,7.80
2019-06-26T12:41:44.691Z,8.47
2019-06-26T12:44:14.979Z,7.78
2019-06-26T12:46:45.265Z,7.60
2019-06-26T12:49:15.747Z,8.15
2019-06-26T12:51:46.033Z,8.18
2019-06-26T12:54:16.320Z,8.03
2019-06-26T12:56:46.905Z,7.90
2019-06-26T12:59:17.203Z,8.15
2019-06-26T13:01:47.476Z,7.58
2019-06-26T13:04:17.767Z,7.85
2019-06-26T13:06:48.281Z,7.72
2019-06-26T13:09:18.600Z,7.70
2019-06-26T13:11:48.849Z,7.33
2019-06-26T13:14:19.131Z,8.00
2019-06-26T13:16:49.427Z,8.97
2019-06-26T13:19:19.721Z,7.45
2019-06-26T13:21:49.958Z,7.50
2019-06-26T13:24:20.319Z,7.04
2019-06-26T13:26:54.272Z,8.60
2019-06-26T13:29:22.839Z,7.85
2019-06-26T13:31:53.121Z,7.77
2019-06-26T13:34:24.744Z,8.28
2019-06-26T13:36:55.026Z,7.95
2019-06-26T13:39:25.300Z,7.85
2019-06-26T13:41:55.645Z,7.47
2019-06-26T13:44:25.933Z,6.92
2019-06-26T13:46:56.209Z,7.17
2019-06-26T13:49:26.475Z,7.35
2019-06-26T13:51:56.758Z,7.73
2019-06-26T13:54:27.328Z,7.72
2019-06-26T13:56:57.596Z,7.37
2019-06-26T13:59:27.933Z,7.77
2019-06-26T14:01:58.206Z,7.05
2019-06-26T14:04:30.517Z,7.67
2019-06-26T14:07:01.210Z,6.78
2019-06-26T14:09:31.722Z,7.10
2019-06-26T14:12:02.100Z,6.80
2019-06-26T14:14:55.888Z,7.40
2019-06-26T14:17:04.341Z,6.65
2019-06-26T14:19:34.870Z,6.67
2019-06-26T14:22:06.271Z,7.45
2019-06-26T14:24:36.572Z,6.80
2019-06-26T14:27:06.827Z,6.50
2019-06-26T14:29:37.115Z,6.78
2019-06-26T14:32:07.415Z,6.85
2019-06-26T14:34:38.355Z,6.85
2019-06-26T14:37:08.681Z,6.75
2019-06-26T14:39:41.038Z,7.25
2019-06-26T14:42:11.452Z,7.70
2019-06-26T14:44:43.293Z,6.50
2019-06-26T14:47:13.585Z,6.27
2019-06-26T14:49:43.933Z,7.40
2019-06-26T14:52:14.229Z,7.27
2019-06-26T14:54:44.506Z,7.17
2019-06-26T14:57:14.807Z,6.87
2019-06-26T14:59:46.717Z,7.60
2019-06-26T15:02:16.993Z,7.37
2019-06-26T15:04:47.265Z,7.15
2019-06-26T15:07:17.546Z,7.80
2019-06-26T15:09:47.937Z,7.25
2019-06-26T15:12:18.314Z,8.03
2019-06-26T15:14:48.624Z,7.17
2019-06-26T15:17:18.895Z,8.43
2019-06-26T15:19:49.614Z,7.05
2019-06-26T15:22:19.906Z,7.57
2019-06-26T15:24:50.281Z,7.80
2019-06-26T15:27:20.564Z,8.20
2019-06-26T15:29:50.848Z,7.67
2019-06-26T15:32:21.542Z,8.13
2019-06-26T15:34:52.076Z,7.33
2019-06-26T15:37:22.355Z,8.28
2019-06-26T15:39:52.629Z,7.73
2019-06-26T15:42:22.917Z,7.40
2019-06-26T15:44:53.214Z,7.75
2019-06-26T15:47:23.501Z,7.90
2019-06-26T15:49:54.018Z,8.10
2019-06-26T15:52:25.453Z,8.55
2019-06-26T15:54:55.726Z,7.45
2019-06-26T15:57:26.079Z,7.67
2019-06-26T15:59:56.359Z,9.28
2019-06-26T16:02:26.645Z,8.40
2019-06-26T16:04:56.924Z,8.85
2019-06-26T16:07:27.316Z,8.43
2019-06-26T16:09:57.683Z,8.17
2019-06-26T16:12:28.124Z,8.60
2019-06-26T16:14:58.531Z,8.13
2019-06-26T16:17:42.224Z,7.70
2019-06-26T16:20:12.641Z,6.83
2019-06-26T16:22:42.928Z,7.78
2019-06-26T16:25:14.930Z,7.95
2019-06-26T16:27:45.299Z,7.10
2019-06-26T16:30:16.296Z,6.83
2019-06-26T16:32:46.590Z,7.08
2019-06-26T16:35:17.968Z,7.33
2019-06-26T16:37:48.293Z,7.42
2019-06-26T16:40:19.049Z,8.18
2019-06-26T16:42:49.463Z,7.50
2019-06-26T16:45:19.917Z,7.90
2019-06-26T16:47:50.655Z,7.97
2019-06-26T16:50:21.312Z,7.50
2019-06-26T16:52:51.757Z,7.67
2019-06-26T16:55:22.044Z,7.20
2019-06-26T16:57:53.125Z,6.78
2019-06-26T17:00:23.537Z,7.55
2019-06-26T17:02:53.834Z,7.28
2019-06-26T17:05:24.267Z,7.12
2019-06-26T17:07:54.543Z,7.87
2019-06-26T17:10:24.918Z,8.58
2019-06-26T17:12:55.455Z,7.80
2019-06-26T17:15:25.761Z,7.40
2019-06-26T17:17:56.060Z,8.10
2019-06-26T17:20:26.373Z,7.65
2019-06-26T17:23:05.832Z,8.13
2019-06-26T17:25:28.672Z,7.77
2019-06-26T17:27:59.026Z,7.78
2019-06-26T17:30:29.391Z,7.43
2019-06-26T17:32:59.678Z,8.90
2019-06-26T17:35:29.959Z,8.10
2019-06-26T17:38:00.243Z,7.55
2019-06-26T17:40:36.628Z,7.75
2019-06-26T17:43:12.240Z,7.40
2019-06-26T17:45:39.048Z,8.04
2019-06-26T17:48:09.296Z,8.93
2019-06-26T17:50:39.685Z,7.87
2019-06-26T17:53:21.073Z,7.75
2019-06-26T17:55:43.350Z,8.65
2019-06-26T17:58:13.643Z,8.60
2019-06-26T18:00:43.931Z,8.13
2019-06-26T18:03:14.216Z,7.70
2019-06-26T18:05:44.535Z,8.15
2019-06-26T18:08:14.792Z,8.70
2019-06-26T18:10:45.091Z,8.53
2019-06-26T18:13:15.373Z,9.53
2019-06-26T18:15:45.683Z,9.38
2019-06-26T18:18:16.196Z,9.20
2019-06-26T18:20:46.486Z,9.10
2019-06-26T18:23:16.765Z,9.48
2019-06-26T18:25:53.845Z,9.33
2019-06-26T18:28:19.046Z,10.13
2019-06-26T18:30:49.341Z,9.53
2019-06-26T18:33:19.665Z,9.53
2019-06-26T18:35:49.942Z,10.93
2019-06-26T18:38:20.644Z,10.43
2019-06-26T18:40:52.071Z,10.08
2019-06-26T18:43:22.364Z,9.23
2019-06-26T18:45:52.662Z,10.10
2019-06-26T18:48:25.038Z,10.38
2019-06-26T18:50:55.167Z,9.43
2019-06-26T18:53:25.696Z,9.55
2019-06-26T18:55:55.978Z,9.58
2019-06-26T18:58:26.275Z,9.60
2019-06-26T19:00:56.579Z,9.30
2019-06-26T19:03:26.863Z,9.53
2019-06-26T19:05:57.144Z,9.50
2019-06-26T19:08:27.448Z,9.45
2019-06-26T19:10:57.846Z,9.87
2019-06-26T19:13:28.086Z,8.55
2019-06-26T19:15:58.371Z,9.13
2019-06-26T19:18:28.669Z,9.83
2019-06-26T19:20:58.953Z,9.70
2019-06-26T19:23:29.239Z,9.53
2019-06-26T19:25:59.539Z,8.45
2019-06-26T19:28:29.821Z,8.38
2019-06-26T19:31:00.118Z,8.25
2019-06-26T19:33:30.397Z,7.95
2019-06-26T19:36:00.704Z,8.65
2019-06-26T19:38:30.966Z,8.60
2019-06-26T19:41:01.252Z,7.53
2019-06-26T19:43:31.534Z,7.97
2019-06-26T19:46:01.821Z,8.13
2019-06-26T19:48:32.098Z,8.35
2019-06-26T19:51:02.389Z,7.83
2019-06-26T19:53:32.673Z,8.65
2019-06-26T19:56:02.960Z,8.63
2019-06-26T19:58:33.229Z,8.40
2019-06-26T20:01:03.831Z,9.35
2019-06-26T20:03:34.582Z,9.33
2019-06-26T20:06:04.946Z,9.53
2019-06-26T20:08:48.573Z,9.78
2019-06-26T20:11:07.318Z,9.78
2019-06-26T20:13:37.580Z,11.43
2019-06-26T20:16:07.858Z,10.80
2019-06-26T20:18:38.185Z,9.85
2019-06-26T20:21:08.441Z,10.55
2019-06-26T20:23:38.732Z,10.35
2019-06-26T20:26:09.049Z,11.83
2019-06-26T20:28:39.340Z,10.50
2019-06-26T20:31:09.609Z,9.37
2019-06-26T20:33:39.915Z,9.20
2019-06-26T20:36:10.190Z,9.73
2019-06-26T20:38:40.480Z,9.85
2019-06-26T20:41:10.755Z,9.58
2019-06-26T20:43:41.038Z,9.53
2019-06-26T20:46:15.334Z,11.10
2019-06-26T20:48:43.655Z,9.80
2019-06-26T20:51:13.926Z,9.90
2019-06-26T20:53:44.444Z,9.78
2019-06-26T20:56:14.760Z,10.23
2019-06-26T20:58:45.027Z,10.45
2019-06-26T21:01:15.332Z,10.85
2019-06-26T21:03:45.617Z,10.53
2019-06-26T21:06:16.016Z,10.72
2019-06-26T21:08:46.224Z,9.77
2019-06-26T21:11:16.522Z,9.78
2019-06-26T21:13:46.811Z,10.05
2019-06-26T21:16:17.109Z,10.68
2019-06-26T21:18:47.401Z,10.38
2019-06-26T21:21:17.692Z,10.43
2019-06-26T21:23:48.007Z,10.75
2019-06-26T21:26:18.377Z,10.15
2019-06-26T21:28:48.902Z,9.90
2019-06-26T21:31:20.310Z,9.25
2019-06-26T21:33:50.838Z,9.50
2019-06-26T21:36:21.116Z,9.55
2019-06-26T21:38:51.421Z,9.53
2019-06-26T21:41:21.713Z,10.43
2019-06-26T21:43:52.052Z,9.20
2019-06-26T21:46:22.328Z,9.30
2019-06-26T21:48:52.617Z,9.70
2019-06-26T21:51:22.896Z,9.83
2019-06-26T21:53:53.194Z,11.28
2019-06-26T21:56:23.706Z,9.83
2019-06-26T21:58:54.000Z,9.98
2019-06-26T22:01:24.355Z,10.17
2019-06-26T22:03:55.016Z,10.60
2019-06-26T22:06:26.063Z,9.80
2019-06-26T22:08:56.342Z,9.17
2019-06-26T22:11:26.632Z,9.80
2019-06-26T22:13:57.655Z,9.88
2019-06-26T22:16:27.947Z,9.75
2019-06-26T22:18:58.227Z,10.03
2019-06-26T22:21:28.523Z,10.68
2019-06-26T22:23:59.122Z,10.10
2019-06-26T22:26:29.416Z,9.60
2019-06-26T22:28:59.706Z,10.30
2019-06-26T22:31:30.259Z,10.20
2019-06-26T22:34:00.530Z,9.10
2019-06-26T22:36:30.816Z,9.63
2019-06-26T22:39:01.106Z,9.38
2019-06-26T22:41:31.390Z,9.57
2019-06-26T22:44:01.697Z,10.00
2019-06-26T22:46:31.986Z,10.08
2019-06-26T22:49:02.274Z,9.68
2019-06-26T22:51:32.606Z,8.98
2019-06-26T22:54:02.952Z,10.28
2019-06-26T22:56:34.322Z,9.85
2019-06-26T22:59:04.610Z,9.73
2019-06-26T23:01:34.900Z,10.25
2019-06-26T23:04:05.189Z,9.88
2019-06-26T23:06:37.518Z,10.87
2019-06-26T23:09:08.543Z,11.15
2019-06-26T23:11:38.826Z,10.50
2019-06-26T23:14:09.360Z,9.98
2019-06-26T23:16:39.656Z,9.68
2019-06-26T23:19:09.950Z,10.35
2019-06-26T23:21:40.228Z,9.75
2019-06-26T23:24:10.530Z,9.77
2019-06-26T23:26:40.804Z,9.40
2019-06-26T23:29:11.111Z,9.70
2019-06-26T23:31:41.418Z,10.30
2019-06-26T23:34:11.696Z,8.78
2019-06-26T23:36:41.984Z,9.20
2019-06-26T23:39:12.505Z,10.15
2019-06-26T23:41:42.794Z,9.30
2019-06-26T23:44:13.078Z,9.73
2019-06-26T23:46:43.732Z,9.73
2019-06-26T23:49:14.013Z,9.05
2019-06-26T23:51:44.303Z,9.30
